Daihatsumaru — JD2764 — position and weather

sailwx.info

Track history (hours):
 
Tides and Currents Weather Stations Pressure Air Temp Water Temp Dewpoint Dewpoint Depression Visibility Wind Speed Wind Dir Waves Ship Positions

Daihatsumaru

Last reported at 2017-Sep-20 05:32 UTC. Time now 2017-Sep-21 03:22 UTC.
Position N 34°37' E 134°56'.

Length 106 m; draft 4.5 m.

Type: Cargo ship. MMSI: 431000701.

Date/timePositionNaut miles runAvg speedWind from/ knotsBaromVisibWave heightAir tempDewpointWater temp
2017-Sep-20 05:32N 34°37' E 134°56'410.8
2017-Sep-20 05:08N 34°37' E 135°01'1 8.3
2017-Sep-20 05:00N 34°37' E 135°02'611.1
2017-Sep-20 04:30N 34°36' E 135°09'714.6
2017-Sep-20 04:00N 34°38' E 135°18'611.0
2017-Sep-20 03:30N 34°41' E 135°23'0 0.1
2017-Sep-20 03:00N 34°41' E 135°23'0 0.1
2017-Sep-20 02:29N 34°41' E 135°23'0 0.1
2017-Sep-20 02:00N 34°41' E 135°23'0 0.1
2017-Sep-20 01:30N 34°41' E 135°23'0 0.0
2017-Sep-20 01:00N 34°41' E 135°23'0 0.0
2017-Sep-20 00:30N 34°41' E 135°23'0 0.0
2017-Sep-20 00:00N 34°41' E 135°23'0 0.1
2017-Sep-19 23:30N 34°41' E 135°23'0 0.1
2017-Sep-19 22:59N 34°41' E 135°23'3 5.3
2017-Sep-19 22:30N 34°40' E 135°21'0 0.1
2017-Sep-19 22:00N 34°40' E 135°21'0 0.0
2017-Sep-19 21:30N 34°40' E 135°21'0 0.0
2017-Sep-19 21:00N 34°40' E 135°21'0 0.0
2017-Sep-19 20:30N 34°40' E 135°21'0 0.0
2017-Sep-19 20:00N 34°40' E 135°21'0 0.0
2017-Sep-19 19:30N 34°40' E 135°21'0 0.0
2017-Sep-19 19:00N 34°40' E 135°21'5 9.8
2017-Sep-19 18:31N 34°36' E 135°17'815.7
2017-Sep-19 18:01N 34°35' E 135°08'816.3
2017-Sep-19 17:31N 34°37' E 134°58'  
2017-Sep-16 05:01N 34°37' E 134°57'714.3
2017-Sep-16 04:31N 34°36' E 135°06'815.7
2017-Sep-16 04:01N 34°37' E 135°15'815.0
2017-Sep-16 03:30N 34°41' E 135°23'0 0.3
2017-Sep-16 02:40N 34°41' E 135°23'0 0.0
2017-Sep-16 02:22N 34°41' E 135°23'0 0.0
2017-Sep-16 00:59N 34°41' E 135°23'0 0.1
2017-Sep-16 00:28N 34°41' E 135°23'0 0.0
2017-Sep-16 00:00N 34°41' E 135°23'0 0.1
2017-Sep-15 23:25N 34°41' E 135°23'0 0.0
2017-Sep-15 22:56N 34°41' E 135°23'0 0.0
2017-Sep-15 22:30N 34°41' E 135°23'3 6.7
2017-Sep-15 22:00N 34°40' E 135°20'0 0.1
2017-Sep-15 21:30N 34°40' E 135°20'0 0.0
2017-Sep-15 21:00N 34°40' E 135°20'0 0.0
2017-Sep-15 20:30N 34°40' E 135°20'0 0.1
2017-Sep-15 20:00N 34°40' E 135°20'510.9
2017-Sep-15 19:31N 34°36' E 135°15'714.4
2017-Sep-15 19:00N 34°35' E 135°06'713.6
2017-Sep-15 18:29N 34°37' E 134°58'2 0.1
2017-Sep-14 05:01N 34°37' E 134°56'816.3
2017-Sep-14 04:31N 34°36' E 135°05'815.3
2017-Sep-14 04:01N 34°38' E 135°15'714.5
2017-Sep-14 03:30N 34°41' E 135°23'1 1.5
2017-Sep-14 03:00N 34°41' E 135°23'0 0.0
2017-Sep-14 02:30N 34°41' E 135°23'0 0.1
2017-Sep-14 01:59N 34°41' E 135°23'0 0.1
2017-Sep-14 01:30N 34°41' E 135°23'0 0.0
2017-Sep-14 01:00N 34°41' E 135°23'0 0.1
2017-Sep-14 00:30N 34°41' E 135°23'0 0.1
2017-Sep-14 00:00N 34°41' E 135°23'0 0.1
2017-Sep-13 23:28N 34°41' E 135°23'0 0.1
2017-Sep-13 23:00N 34°41' E 135°23'2 4.3
2017-Sep-13 22:30N 34°40' E 135°21'0 0.7
2017-Sep-13 22:00N 34°40' E 135°21'0 0.0
2017-Sep-13 21:30N 34°40' E 135°21'0 0.0
2017-Sep-13 21:00N 34°40' E 135°21'0 0.0
2017-Sep-13 20:30N 34°40' E 135°21'0 0.0
2017-Sep-13 20:00N 34°40' E 135°21'1 3.0
2017-Sep-13 19:30N 34°39' E 135°20'714.2
2017-Sep-13 19:00N 34°35' E 135°12'714.8
2017-Sep-13 18:30N 34°35' E 135°03'813.3
2017-Sep-13 17:56N 34°35' E 134°54'2 0.0
2017-Sep-12 04:57N 34°36' E 134°55'715.1
2017-Sep-12 04:30N 34°36' E 135°04'714.6
2017-Sep-12 04:00N 34°37' E 135°12'714.9
2017-Sep-12 03:30N 34°40' E 135°21'3 5.4
2017-Sep-12 03:00N 34°41' E 135°23'0 0.0
2017-Sep-12 02:30N 34°41' E 135°23'0 0.0
2017-Sep-12 02:00N 34°41' E 135°23'0 0.1
2017-Sep-12 01:30N 34°41' E 135°23'0 0.1
2017-Sep-12 01:00N 34°41' E 135°23'0 0.0
2017-Sep-12 00:30N 34°41' E 135°23'0 0.0
2017-Sep-12 00:00N 34°41' E 135°23'0 0.0
2017-Sep-11 23:30N 34°41' E 135°23'0 0.0
2017-Sep-11 23:00N 34°41' E 135°23'3 6.6
2017-Sep-11 22:30N 34°39' E 135°20'0 0.2
2017-Sep-11 21:59N 34°39' E 135°20'0 0.0
2017-Sep-11 21:30N 34°39' E 135°20'0 0.0
2017-Sep-11 21:00N 34°39' E 135°20'0 0.1
2017-Sep-11 20:30N 34°39' E 135°20'0 0.0
2017-Sep-11 20:00N 34°39' E 135°20'0 0.1
2017-Sep-11 19:30N 34°39' E 135°20'4 8.0
2017-Sep-11 19:00N 34°37' E 135°17'815.6
2017-Sep-11 18:30N 34°35' E 135°07'815.4
2017-Sep-11 18:00N 34°37' E 134°58'  
Track history (hours):
 
Tides and Currents Weather Stations Pressure Air Temp Water Temp Dewpoint Dewpoint Depression Visibility Wind Speed Wind Dir Waves Ship Positions

Daihatsumaru

Last reported at 2017-Sep-20 05:32 UTC. Time now 2017-Sep-21 03:22 UTC.
Position N 34°37' E 134°56'.

Length 106 m; draft 4.5 m.

Type: Cargo ship. MMSI: 431000701.

Date/timePositionNaut miles runAvg speedWind from/ knotsBaromVisibWave heightAir tempDewpointWater temp
2017-Sep-20 05:32N 34°37' E 134°56'410.8
2017-Sep-20 05:08N 34°37' E 135°01'1 8.3
2017-Sep-20 05:00N 34°37' E 135°02'611.1
2017-Sep-20 04:30N 34°36' E 135°09'714.6
2017-Sep-20 04:00N 34°38' E 135°18'611.0
2017-Sep-20 03:30N 34°41' E 135°23'0 0.1
2017-Sep-20 03:00N 34°41' E 135°23'0 0.1
2017-Sep-20 02:29N 34°41' E 135°23'0 0.1
2017-Sep-20 02:00N 34°41' E 135°23'0 0.1
2017-Sep-20 01:30N 34°41' E 135°23'0 0.0
2017-Sep-20 01:00N 34°41' E 135°23'0 0.0
2017-Sep-20 00:30N 34°41' E 135°23'0 0.0
2017-Sep-20 00:00N 34°41' E 135°23'0 0.1
2017-Sep-19 23:30N 34°41' E 135°23'0 0.1
2017-Sep-19 22:59N 34°41' E 135°23'3 5.3
2017-Sep-19 22:30N 34°40' E 135°21'0 0.1
2017-Sep-19 22:00N 34°40' E 135°21'0 0.0
2017-Sep-19 21:30N 34°40' E 135°21'0 0.0
2017-Sep-19 21:00N 34°40' E 135°21'0 0.0
2017-Sep-19 20:30N 34°40' E 135°21'0 0.0
2017-Sep-19 20:00N 34°40' E 135°21'0 0.0
2017-Sep-19 19:30N 34°40' E 135°21'0 0.0
2017-Sep-19 19:00N 34°40' E 135°21'5 9.8
2017-Sep-19 18:31N 34°36' E 135°17'815.7
2017-Sep-19 18:01N 34°35' E 135°08'816.3
2017-Sep-19 17:31N 34°37' E 134°58'  
2017-Sep-16 05:01N 34°37' E 134°57'714.3
2017-Sep-16 04:31N 34°36' E 135°06'815.7
2017-Sep-16 04:01N 34°37' E 135°15'815.0
2017-Sep-16 03:30N 34°41' E 135°23'0 0.3
2017-Sep-16 02:40N 34°41' E 135°23'0 0.0
2017-Sep-16 02:22N 34°41' E 135°23'0 0.0
2017-Sep-16 00:59N 34°41' E 135°23'0 0.1
2017-Sep-16 00:28N 34°41' E 135°23'0 0.0
2017-Sep-16 00:00N 34°41' E 135°23'0 0.1
2017-Sep-15 23:25N 34°41' E 135°23'0 0.0
2017-Sep-15 22:56N 34°41' E 135°23'0 0.0
2017-Sep-15 22:30N 34°41' E 135°23'3 6.7
2017-Sep-15 22:00N 34°40' E 135°20'0 0.1
2017-Sep-15 21:30N 34°40' E 135°20'0 0.0
2017-Sep-15 21:00N 34°40' E 135°20'0 0.0
2017-Sep-15 20:30N 34°40' E 135°20'0 0.1
2017-Sep-15 20:00N 34°40' E 135°20'510.9
2017-Sep-15 19:31N 34°36' E 135°15'714.4
2017-Sep-15 19:00N 34°35' E 135°06'713.6
2017-Sep-15 18:29N 34°37' E 134°58'2 0.1
2017-Sep-14 05:01N 34°37' E 134°56'816.3
2017-Sep-14 04:31N 34°36' E 135°05'815.3
2017-Sep-14 04:01N 34°38' E 135°15'714.5
2017-Sep-14 03:30N 34°41' E 135°23'1 1.5
2017-Sep-14 03:00N 34°41' E 135°23'0 0.0
2017-Sep-14 02:30N 34°41' E 135°23'0 0.1
2017-Sep-14 01:59N 34°41' E 135°23'0 0.1
2017-Sep-14 01:30N 34°41' E 135°23'0 0.0
2017-Sep-14 01:00N 34°41' E 135°23'0 0.1
2017-Sep-14 00:30N 34°41' E 135°23'0 0.1
2017-Sep-14 00:00N 34°41' E 135°23'0 0.1
2017-Sep-13 23:28N 34°41' E 135°23'0 0.1
2017-Sep-13 23:00N 34°41' E 135°23'2 4.3
2017-Sep-13 22:30N 34°40' E 135°21'0 0.7
2017-Sep-13 22:00N 34°40' E 135°21'0 0.0
2017-Sep-13 21:30N 34°40' E 135°21'0 0.0
2017-Sep-13 21:00N 34°40' E 135°21'0 0.0
2017-Sep-13 20:30N 34°40' E 135°21'0 0.0
2017-Sep-13 20:00N 34°40' E 135°21'1 3.0
2017-Sep-13 19:30N 34°39' E 135°20'714.2
2017-Sep-13 19:00N 34°35' E 135°12'714.8
2017-Sep-13 18:30N 34°35' E 135°03'813.3
2017-Sep-13 17:56N 34°35' E 134°54'2 0.0
2017-Sep-12 04:57N 34°36' E 134°55'715.1
2017-Sep-12 04:30N 34°36' E 135°04'714.6
2017-Sep-12 04:00N 34°37' E 135°12'714.9
2017-Sep-12 03:30N 34°40' E 135°21'3 5.4
2017-Sep-12 03:00N 34°41' E 135°23'0 0.0
2017-Sep-12 02:30N 34°41' E 135°23'0 0.0
2017-Sep-12 02:00N 34°41' E 135°23'0 0.1
2017-Sep-12 01:30N 34°41' E 135°23'0 0.1
2017-Sep-12 01:00N 34°41' E 135°23'0 0.0
2017-Sep-12 00:30N 34°41' E 135°23'0 0.0
2017-Sep-12 00:00N 34°41' E 135°23'0 0.0
2017-Sep-11 23:30N 34°41' E 135°23'0 0.0
2017-Sep-11 23:00N 34°41' E 135°23'3 6.6
2017-Sep-11 22:30N 34°39' E 135°20'0 0.2
2017-Sep-11 21:59N 34°39' E 135°20'0 0.0
2017-Sep-11 21:30N 34°39' E 135°20'0 0.0
2017-Sep-11 21:00N 34°39' E 135°20'0 0.1
2017-Sep-11 20:30N 34°39' E 135°20'0 0.0
2017-Sep-11 20:00N 34°39' E 135°20'0 0.1
2017-Sep-11 19:30N 34°39' E 135°20'4 8.0
2017-Sep-11 19:00N 34°37' E 135°17'815.6
2017-Sep-11 18:30N 34°35' E 135°07'815.4
2017-Sep-11 18:00N 34°37' E 134°58'  

Dump ship's entire track history